Time;durP1;ratioP1;P1;durP2;ratioP2;P2;SDS_P1;SDS_P2;PMS_P1;PMS_P2;Temp;Humidity;BMP_temperature;BMP_pressure;BME280_temperature;BME280_humidity;BME280_pressure;Samples;Min_cycle;Max_cycle;Signal;HPM_P1;HPM_P2
2022/01/23 00:03:06;;;;;;;;;133.00;111.50;;;;;;;;5021916;28;51129;-49
2022/01/23 00:05:52;;;;;;;;;131.50;112.75;;;;;;;;5020619;28;51109;-51
2022/01/23 00:08:45;;;;;;;;;117.00;100.00;;;;;;;;5021459;28;51236;-48
2022/01/23 00:11:31;;;;;;;;;130.00;103.75;;;;;;;;5015918;28;51491;-48
2022/01/23 00:17:20;;;;;;;;;125.75;100.50;;;;;;;;5022512;28;51146;-48
2022/01/23 00:20:11;;;;;;;;;114.75;101.00;;;;;;;;5020064;28;51607;-46
2022/01/23 00:23:01;;;;;;;;;110.50;94.50;;;;;;;;5018541;28;51168;-46
2022/01/23 00:32:03;;;;;;;;;131.75;101.50;;;;;;;;5019886;28;51181;-48
2022/01/23 00:35:08;;;;;;;;;120.50;108.00;;;;;;;;5019417;28;51284;-45
2022/01/23 00:38:05;;;;;;;;;115.25;101.25;;;;;;;;5016357;28;51259;-48
2022/01/23 00:40:50;;;;;;;;;109.00;95.25;;;;;;;;5020333;28;51161;-46
2022/01/23 00:43:40;;;;;;;;;116.75;103.00;;;;;;;;5019567;28;51236;-48
2022/01/23 00:46:50;;;;;;;;;112.75;92.50;;;;;;;;5019376;28;51166;-47
2022/01/23 00:49:40;;;;;;;;;113.75;94.50;;;;;;;;5019814;28;51543;-50
2022/01/23 00:52:25;;;;;;;;;119.25;97.25;;;;;;;;5021040;28;51429;-47
2022/01/23 00:55:12;;;;;;;;;120.00;104.25;;;;;;;;5023522;28;51067;-50
2022/01/23 00:58:19;;;;;;;;;101.50;91.25;;;;;;;;5022412;28;51442;-44
2022/01/23 01:01:03;;;;;;;;;119.00;98.25;;;;;;;;5019975;28;51342;-46
2022/01/23 01:03:48;;;;;;;;;111.75;95.75;;;;;;;;5020134;28;51534;-47
2022/01/23 01:06:44;;;;;;;;;118.25;97.00;;;;;;;;5017676;28;51110;-45
2022/01/23 01:09:31;;;;;;;;;114.00;97.00;;;;;;;;5021898;28;52660;-49
2022/01/23 01:12:29;;;;;;;;;103.00;93.25;;;;;;;;5018750;28;51576;-47
2022/01/23 01:30:46;;;;;;;;;106.25;91.50;;;;;;;;5016680;28;51087;-46
2022/01/23 01:33:51;;;;;;;;;97.25;82.75;;;;;;;;5018565;28;51184;-49
2022/01/23 01:36:51;;;;;;;;;96.00;83.25;;;;;;;;5018758;28;51115;-46
2022/01/23 01:39:37;;;;;;;;;106.00;90.50;;;;;;;;5018998;28;51157;-51
2022/01/23 01:42:44;;;;;;;;;104.50;93.50;;;;;;;;5019104;28;51194;-44
2022/01/23 01:45:30;;;;;;;;;102.75;87.00;;;;;;;;5017501;28;51271;-49
2022/01/23 01:48:22;;;;;;;;;104.50;87.25;;;;;;;;5020117;28;51294;-45
2022/01/23 01:51:17;;;;;;;;;110.00;94.25;;;;;;;;5023446;28;50987;-46
2022/01/23 01:54:11;;;;;;;;;93.75;73.75;;;;;;;;5023122;28;51109;-46
2022/01/23 01:57:35;;;;;;;;;102.00;85.25;;;;;;;;5023423;28;51179;-45
2022/01/23 02:09:34;;;;;;;;;100.75;85.50;;;;;;;;5022481;28;51533;-46
2022/01/23 02:12:57;;;;;;;;;101.00;86.50;;;;;;;;5017719;28;51232;-44
2022/01/23 02:55:49;;;;;;;;;156.25;135.25;;;;;;;;4976678;28;51153;-48
2022/01/23 02:59:11;;;;;;;;;164.50;137.75;;;;;;;;5019735;28;51022;-46
2022/01/23 03:04:51;;;;;;;;;162.00;142.00;;;;;;;;5021366;28;51112;-45
2022/01/23 03:11:04;;;;;;;;;165.00;142.25;;;;;;;;5020859;28;51150;-46
2022/01/23 03:14:01;;;;;;;;;163.50;141.75;;;;;;;;5023596;28;52935;-45
2022/01/23 03:26:38;;;;;;;;;184.00;154.00;;;;;;;;5020099;28;51374;-48
2022/01/23 03:29:50;;;;;;;;;177.50;145.25;;;;;;;;5020302;28;51078;-47
2022/01/23 03:32:37;;;;;;;;;172.75;153.75;;;;;;;;5021028;28;51158;-45
2022/01/23 03:35:37;;;;;;;;;167.50;144.50;;;;;;;;5009084;28;51050;-47
2022/01/23 03:38:22;;;;;;;;;154.00;135.75;;;;;;;;5020455;28;51386;-46
2022/01/23 03:41:07;;;;;;;;;157.50;138.75;;;;;;;;5025668;28;51049;-43
2022/01/23 03:43:57;;;;;;;;;177.75;151.50;;;;;;;;5019687;28;50979;-45
2022/01/23 03:49:32;;;;;;;;;159.00;138.25;;;;;;;;5021651;28;51473;-47
2022/01/23 03:52:19;;;;;;;;;168.50;141.00;;;;;;;;5017815;28;51416;-50
2022/01/23 03:55:11;;;;;;;;;175.25;141.75;;;;;;;;5019035;28;51205;-44
2022/01/23 03:57:55;;;;;;;;;187.00;160.25;;;;;;;;5019764;28;51139;-46
2022/01/23 04:00:59;;;;;;;;;156.25;137.75;;;;;;;;5019137;28;51375;-48
2022/01/23 04:03:45;;;;;;;;;168.00;142.75;;;;;;;;5018832;28;51113;-46
2022/01/23 04:06:32;;;;;;;;;162.00;146.00;;;;;;;;4994638;28;51103;-47
2022/01/23 04:09:22;;;;;;;;;162.25;142.25;;;;;;;;5022749;28;51365;-47
2022/01/23 04:12:12;;;;;;;;;160.50;139.00;;;;;;;;5020173;28;51114;-48
2022/01/23 04:15:25;;;;;;;;;159.25;136.75;;;;;;;;5020141;28;51046;-46
2022/01/23 04:33:44;;;;;;;;;148.00;119.75;;;;;;;;5021978;28;51441;-44
2022/01/23 04:46:18;;;;;;;;;130.75;111.50;;;;;;;;5020920;28;51573;-47
2022/01/23 05:02:01;;;;;;;;;121.00;109.00;;;;;;;;5019873;28;51347;-47
2022/01/23 05:04:41;;;;;;;;;137.75;117.00;;;;;;;;5017727;28;52545;-44
2022/01/23 05:07:34;;;;;;;;;124.50;107.50;;;;;;;;5019699;28;51616;-47
2022/01/23 05:10:22;;;;;;;;;114.00;106.00;;;;;;;;5015117;28;51073;-53
2022/01/23 05:13:07;;;;;;;;;118.25;101.25;;;;;;;;5018264;28;51154;-47
2022/01/23 05:16:08;;;;;;;;;137.25;113.00;;;;;;;;5018547;28;51127;-44
2022/01/23 05:18:54;;;;;;;;;127.50;109.25;;;;;;;;5003727;28;51424;-46
2022/01/23 05:24:32;;;;;;;;;118.00;103.75;;;;;;;;5022058;28;51015;-45
2022/01/23 05:27:31;;;;;;;;;128.75;107.50;;;;;;;;5019662;28;50996;-48
2022/01/23 05:30:19;;;;;;;;;135.00;119.25;;;;;;;;5019051;28;51135;-47
2022/01/23 05:33:13;;;;;;;;;127.00;106.00;;;;;;;;5019214;28;51351;-45
2022/01/23 05:36:10;;;;;;;;;120.75;101.00;;;;;;;;5021129;28;51141;-46
2022/01/23 05:38:55;;;;;;;;;115.75;98.25;;;;;;;;5019541;28;51123;-46
2022/01/23 05:41:46;;;;;;;;;124.75;106.50;;;;;;;;5017685;28;51112;-46
2022/01/23 05:44:40;;;;;;;;;121.50;106.75;;;;;;;;5016523;28;51351;-46
2022/01/23 05:47:36;;;;;;;;;126.75;108.25;;;;;;;;5017638;28;51271;-45
2022/01/23 05:50:41;;;;;;;;;133.25;112.00;;;;;;;;5016074;28;51118;-43
2022/01/23 05:53:27;;;;;;;;;125.75;107.25;;;;;;;;5017307;28;52088;-47
2022/01/23 05:56:32;;;;;;;;;120.25;105.75;;;;;;;;5020286;28;51220;-43
2022/01/23 05:59:17;;;;;;;;;130.00;106.50;;;;;;;;5019575;28;52385;-47
2022/01/23 06:02:02;;;;;;;;;121.25;105.50;;;;;;;;5020338;28;51216;-48
2022/01/23 06:04:46;;;;;;;;;124.25;108.00;;;;;;;;5018077;28;51104;-44
2022/01/23 06:07:31;;;;;;;;;128.00;107.75;;;;;;;;5020704;28;51039;-47
2022/01/23 06:10:26;;;;;;;;;120.50;102.25;;;;;;;;5016483;28;51404;-44
2022/01/23 06:13:11;;;;;;;;;123.25;105.75;;;;;;;;5018864;28;51098;-45
2022/01/23 06:16:16;;;;;;;;;113.75;103.75;;;;;;;;5016730;28;51073;-46
2022/01/23 06:19:29;;;;;;;;;131.75;111.50;;;;;;;;5006301;28;51496;-45
2022/01/23 06:22:15;;;;;;;;;133.25;114.75;;;;;;;;5017311;28;51308;-50
2022/01/23 06:25:04;;;;;;;;;133.75;117.50;;;;;;;;5020895;28;51138;-48
2022/01/23 06:28:11;;;;;;;;;130.50;119.00;;;;;;;;5015132;28;51090;-45
2022/01/23 06:30:55;;;;;;;;;117.25;103.25;;;;;;;;5021670;28;51514;-44
2022/01/23 06:33:41;;;;;;;;;133.75;113.00;;;;;;;;5004422;28;51103;-50
2022/01/23 06:36:26;;;;;;;;;133.00;118.75;;;;;;;;5022635;28;51319;-47
2022/01/23 06:39:12;;;;;;;;;125.00;108.50;;;;;;;;5025236;28;51130;-49
2022/01/23 06:42:01;;;;;;;;;129.25;113.25;;;;;;;;5027781;28;51161;-45
2022/01/23 06:45:08;;;;;;;;;140.00;117.50;;;;;;;;5022697;28;51481;-48
2022/01/23 06:47:56;;;;;;;;;143.00;114.75;;;;;;;;5024137;28;51333;-45
2022/01/23 06:50:42;;;;;;;;;142.00;127.25;;;;;;;;5006397;28;51177;-44
2022/01/23 06:53:32;;;;;;;;;142.25;124.50;;;;;;;;5022513;28;51089;-47
2022/01/23 06:56:18;;;;;;;;;153.75;126.25;;;;;;;;5021286;28;51464;-46
2022/01/23 06:59:09;;;;;;;;;147.50;132.50;;;;;;;;5022715;28;51074;-45
2022/01/23 07:01:54;;;;;;;;;146.00;127.25;;;;;;;;5020995;28;51262;-45
2022/01/23 07:04:40;;;;;;;;;142.75;124.75;;;;;;;;5021046;28;51089;-48
2022/01/23 07:07:25;;;;;;;;;153.50;126.75;;;;;;;;5021660;28;51119;-45
2022/01/23 07:10:14;;;;;;;;;150.25;124.50;;;;;;;;5016121;28;51346;-47
2022/01/23 07:13:13;;;;;;;;;136.25;115.25;;;;;;;;5019819;28;51047;-47
2022/01/23 07:16:02;;;;;;;;;148.00;124.00;;;;;;;;5020333;28;51137;-46
2022/01/23 07:18:47;;;;;;;;;149.50;133.25;;;;;;;;5020008;28;51149;-47
2022/01/23 07:21:33;;;;;;;;;148.00;131.50;;;;;;;;5020005;28;51440;-50
2022/01/23 07:24:30;;;;;;;;;159.00;128.25;;;;;;;;5018161;28;51019;-44
2022/01/23 07:27:21;;;;;;;;;157.50;135.75;;;;;;;;5020859;28;51185;-48
2022/01/23 07:30:21;;;;;;;;;150.25;128.75;;;;;;;;5020432;28;51148;-50
2022/01/23 07:33:06;;;;;;;;;153.25;139.00;;;;;;;;5019280;28;51177;-48
2022/01/23 07:35:53;;;;;;;;;165.75;141.75;;;;;;;;5020335;28;51165;-46
2022/01/23 07:38:37;;;;;;;;;153.75;144.50;;;;;;;;5020730;28;51173;-47
2022/01/23 07:41:24;;;;;;;;;158.25;134.75;;;;;;;;5020073;28;51089;-49
2022/01/23 07:44:10;;;;;;;;;153.00;131.00;;;;;;;;5020096;28;51172;-47
2022/01/23 07:47:14;;;;;;;;;143.25;138.25;;;;;;;;5019500;28;51410;-49
2022/01/23 07:50:00;;;;;;;;;157.00;136.75;;;;;;;;5020145;28;51269;-46
2022/01/23 07:52:45;;;;;;;;;152.50;129.00;;;;;;;;5019685;28;51176;-45
2022/01/23 07:55:36;;;;;;;;;150.75;132.00;;;;;;;;5019757;28;51110;-51
2022/01/23 07:58:20;;;;;;;;;152.50;122.50;;;;;;;;5019800;28;51370;-46
2022/01/23 08:01:07;;;;;;;;;142.75;125.75;;;;;;;;5017486;28;51537;-45
2022/01/23 08:03:51;;;;;;;;;154.00;136.75;;;;;;;;5019879;28;51122;-48
2022/01/23 08:06:43;;;;;;;;;143.00;125.00;;;;;;;;5018593;28;51462;-48
2022/01/23 08:09:28;;;;;;;;;148.75;133.25;;;;;;;;5019571;28;51094;-47
2022/01/23 08:12:13;;;;;;;;;154.25;139.50;;;;;;;;5005555;28;52307;-48
2022/01/23 08:15:00;;;;;;;;;153.25;136.50;;;;;;;;5019090;28;51108;-48
2022/01/23 08:17:44;;;;;;;;;168.00;142.00;;;;;;;;5004433;28;51595;-48
2022/01/23 08:20:34;;;;;;;;;204.25;172.00;;;;;;;;5018912;28;51319;-47
2022/01/23 08:23:21;;;;;;;;;188.75;165.25;;;;;;;;5017687;28;51582;-52
2022/01/23 08:26:08;;;;;;;;;196.75;172.75;;;;;;;;5018320;28;51528;-50
2022/01/23 08:28:55;;;;;;;;;174.25;151.25;;;;;;;;4993858;28;51192;-47
2022/01/23 08:31:45;;;;;;;;;194.00;176.50;;;;;;;;5019127;28;51054;-51
2022/01/23 08:34:50;;;;;;;;;228.00;209.25;;;;;;;;5017689;28;51149;-47
2022/01/23 08:37:37;;;;;;;;;202.25;177.50;;;;;;;;5016396;28;51508;-49
2022/01/23 08:43:26;;;;;;;;;172.00;152.75;;;;;;;;5018936;28;51156;-55
2022/01/23 08:46:12;;;;;;;;;151.50;131.00;;;;;;;;5002346;28;51075;-50
2022/01/23 08:48:58;;;;;;;;;151.75;139.00;;;;;;;;5017884;28;51087;-46
2022/01/23 08:51:45;;;;;;;;;156.00;139.50;;;;;;;;5017853;28;51104;-47
2022/01/23 08:54:36;;;;;;;;;150.00;132.50;;;;;;;;5019075;28;50983;-50
2022/01/23 08:57:21;;;;;;;;;146.00;138.75;;;;;;;;5010274;28;51544;-45
2022/01/23 09:00:09;;;;;;;;;156.50;136.75;;;;;;;;5017764;28;51562;-48
2022/01/23 09:02:55;;;;;;;;;146.75;129.50;;;;;;;;5016479;28;52014;-45
2022/01/23 09:05:39;;;;;;;;;145.25;127.50;;;;;;;;5016032;28;51201;-49
2022/01/23 09:08:25;;;;;;;;;166.00;149.75;;;;;;;;5015798;28;51028;-51
2022/01/23 09:11:23;;;;;;;;;136.00;119.25;;;;;;;;5016899;28;51353;-45
2022/01/23 09:14:10;;;;;;;;;150.25;131.50;;;;;;;;5015305;28;51012;-46
2022/01/23 09:17:15;;;;;;;;;149.50;131.25;;;;;;;;5022001;28;51735;-47
2022/01/23 09:20:03;;;;;;;;;142.75;118.25;;;;;;;;5019661;28;51154;-47
2022/01/23 09:22:59;;;;;;;;;153.00;131.50;;;;;;;;5019828;28;51523;-46
2022/01/23 09:25:57;;;;;;;;;132.50;116.00;;;;;;;;5020386;28;51527;-47
2022/01/23 09:28:44;;;;;;;;;127.25;119.25;;;;;;;;5015803;28;51499;-49
2022/01/23 09:31:52;;;;;;;;;309.33;274.00;;;;;;;;5020403;28;51120;-46
2022/01/23 09:34:39;;;;;;;;;301.25;273.50;;;;;;;;5020345;28;51055;-49
2022/01/23 09:37:22;;;;;;;;;257.50;225.75;;;;;;;;5018365;28;51129;-50
2022/01/23 09:40:08;;;;;;;;;207.00;184.50;;;;;;;;5018747;28;51091;-52
2022/01/23 09:42:59;;;;;;;;;140.25;124.25;;;;;;;;5016551;28;51498;-50
2022/01/23 09:45:47;;;;;;;;;145.50;130.50;;;;;;;;5017366;28;51138;-49
2022/01/23 09:48:31;;;;;;;;;197.00;174.25;;;;;;;;5018332;28;51580;-46
2022/01/23 09:51:16;;;;;;;;;296.25;251.00;;;;;;;;5017242;28;51172;-46
2022/01/23 09:54:00;;;;;;;;;243.25;208.00;;;;;;;;5018749;28;51191;-48
2022/01/23 09:56:44;;;;;;;;;278.00;234.75;;;;;;;;5018535;28;51038;-48
2022/01/23 09:59:29;;;;;;;;;281.00;244.75;;;;;;;;5017058;28;51793;-47
2022/01/23 10:02:16;;;;;;;;;150.50;130.00;;;;;;;;5016926;28;51317;-51
2022/01/23 10:05:03;;;;;;;;;134.75;122.75;;;;;;;;5019791;28;51104;-48
2022/01/23 10:07:55;;;;;;;;;250.50;217.25;;;;;;;;5015957;28;51548;-49
2022/01/23 10:10:53;;;;;;;;;179.00;165.50;;;;;;;;5017287;28;51037;-48
2022/01/23 10:13:40;;;;;;;;;138.50;125.25;;;;;;;;5006568;28;51213;-51
2022/01/23 10:16:28;;;;;;;;;196.25;169.50;;;;;;;;5024430;28;51109;-52
2022/01/23 10:19:15;;;;;;;;;174.00;148.50;;;;;;;;5024700;28;51435;-45
2022/01/23 10:22:03;;;;;;;;;153.50;136.00;;;;;;;;5023387;28;51062;-50
2022/01/23 10:25:01;;;;;;;;;117.25;105.25;;;;;;;;5021647;28;51394;-51
2022/01/23 10:27:59;;;;;;;;;113.00;99.00;;;;;;;;5022851;28;51465;-47
2022/01/23 10:30:46;;;;;;;;;112.25;96.00;;;;;;;;5023668;28;51170;-48
2022/01/23 10:33:35;;;;;;;;;108.75;96.75;;;;;;;;5024255;28;51502;-55
2022/01/23 10:36:32;;;;;;;;;95.75;86.00;;;;;;;;5021469;28;51534;-49
2022/01/23 10:39:29;;;;;;;;;96.50;89.75;;;;;;;;5025603;28;51149;-50
2022/01/23 10:48:47;;;;;;;;;129.75;118.00;;;;;;;;5027951;28;51296;-51
2022/01/23 10:51:36;;;;;;;;;121.25;108.50;;;;;;;;5021786;28;51102;-49
2022/01/23 10:54:22;;;;;;;;;139.50;117.50;;;;;;;;5016774;28;51165;-48
2022/01/23 10:57:08;;;;;;;;;159.75;136.75;;;;;;;;5027900;28;51261;-46
2022/01/23 10:59:54;;;;;;;;;132.00;107.25;;;;;;;;5021384;28;51205;-51
2022/01/23 11:02:40;;;;;;;;;101.00;90.00;;;;;;;;5026810;28;51148;-54
2022/01/23 11:05:35;;;;;;;;;109.25;94.75;;;;;;;;5026661;28;51008;-50
2022/01/23 11:08:21;;;;;;;;;115.00;101.75;;;;;;;;5030144;28;51011;-48
2022/01/23 11:11:13;;;;;;;;;127.75;116.00;;;;;;;;5025737;28;51378;-47
2022/01/23 11:17:23;;;;;;;;;150.25;128.75;;;;;;;;5023173;28;51091;-46
2022/01/23 11:20:08;;;;;;;;;145.50;135.75;;;;;;;;4974932;28;51164;-47
2022/01/23 11:23:00;;;;;;;;;123.50;108.00;;;;;;;;5014768;28;51082;-46
2022/01/23 11:26:07;;;;;;;;;109.50;98.00;;;;;;;;5020527;28;51216;-48
2022/01/23 11:28:54;;;;;;;;;123.25;111.25;;;;;;;;5018812;28;51164;-47
2022/01/23 11:31:40;;;;;;;;;132.25;112.75;;;;;;;;5024614;28;51516;-47
2022/01/23 11:34:26;;;;;;;;;122.50;110.50;;;;;;;;5021046;28;51187;-47
2022/01/23 11:37:12;;;;;;;;;116.00;108.75;;;;;;;;5020867;28;51562;-47
2022/01/23 11:40:06;;;;;;;;;124.75;106.00;;;;;;;;5007259;28;51360;-45
2022/01/23 11:55:32;;;;;;;;;112.75;94.25;;;;;;;;4969861;28;51279;-44
2022/01/23 11:58:34;;;;;;;;;110.00;97.25;;;;;;;;5028354;28;51429;-48
2022/01/23 12:01:19;;;;;;;;;110.00;100.75;;;;;;;;5021999;28;51483;-45
2022/01/23 12:04:11;;;;;;;;;114.00;100.50;;;;;;;;5016734;28;51456;-44
2022/01/23 12:07:20;;;;;;;;;94.25;87.75;;;;;;;;5024603;28;51242;-52
2022/01/23 12:10:16;;;;;;;;;87.00;80.25;;;;;;;;5021436;28;51395;-43
2022/01/23 12:16:34;;;;;;;;;85.75;71.50;;;;;;;;5010430;28;51211;-46
2022/01/23 12:19:35;;;;;;;;;90.75;81.50;;;;;;;;5010834;28;51345;-52
2022/01/23 12:22:42;;;;;;;;;86.25;77.00;;;;;;;;5001258;28;53252;-46
2022/01/23 12:25:52;;;;;;;;;88.25;76.75;;;;;;;;5014178;28;51635;-47
2022/01/23 12:28:43;;;;;;;;;74.00;63.00;;;;;;;;5016016;28;51315;-46
2022/01/23 12:31:29;;;;;;;;;85.25;74.50;;;;;;;;5021123;28;52641;-49
2022/01/23 12:34:14;;;;;;;;;83.00;71.00;;;;;;;;5022919;28;51254;-51
2022/01/23 12:37:03;;;;;;;;;77.25;67.75;;;;;;;;5019989;28;51206;-46
2022/01/23 12:40:13;;;;;;;;;81.25;72.75;;;;;;;;5019208;28;51148;-46
2022/01/23 12:43:08;;;;;;;;;78.25;65.50;;;;;;;;4944454;28;51111;-50
2022/01/23 12:46:12;;;;;;;;;77.25;68.25;;;;;;;;5020502;28;51051;-47
2022/01/23 12:49:19;;;;;;;;;82.00;69.75;;;;;;;;5017477;28;51118;-45
2022/01/23 12:52:08;;;;;;;;;73.50;60.00;;;;;;;;5015748;28;51201;-48
2022/01/23 12:54:59;;;;;;;;;75.00;62.50;;;;;;;;5017604;28;50960;-46
2022/01/23 12:57:46;;;;;;;;;76.75;64.75;;;;;;;;5016837;28;51925;-43
2022/01/23 13:00:32;;;;;;;;;70.25;56.25;;;;;;;;5016974;28;51268;-45
2022/01/23 13:03:23;;;;;;;;;74.75;63.75;;;;;;;;5019231;28;51598;-48
2022/01/23 13:06:20;;;;;;;;;76.00;66.50;;;;;;;;5017200;28;51152;-47
2022/01/23 13:09:24;;;;;;;;;78.75;67.50;;;;;;;;5018246;28;51152;-50
2022/01/23 13:15:42;;;;;;;;;87.00;80.25;;;;;;;;5011811;28;51121;-51
2022/01/23 13:31:16;;;;;;;;;81.50;65.25;;;;;;;;5017944;28;51566;-47
2022/01/23 13:34:03;;;;;;;;;74.00;62.75;;;;;;;;5017128;28;51140;-50
2022/01/23 13:37:06;;;;;;;;;78.50;69.00;;;;;;;;5018485;28;51128;-49
2022/01/23 13:40:01;;;;;;;;;77.50;69.50;;;;;;;;5018767;28;51171;-45
2022/01/23 13:52:35;;;;;;;;;77.25;63.00;;;;;;;;4960975;28;51191;-46
2022/01/23 13:58:34;;;;;;;;;69.00;57.50;;;;;;;;5022879;28;51657;-50
2022/01/23 14:01:34;;;;;;;;;72.50;60.00;;;;;;;;5022950;28;51354;-50
2022/01/23 14:04:20;;;;;;;;;73.00;60.75;;;;;;;;5022552;28;51176;-48
2022/01/23 14:07:05;;;;;;;;;71.75;57.00;;;;;;;;5022238;28;51125;-50
2022/01/23 14:09:49;;;;;;;;;73.50;58.75;;;;;;;;5022198;28;52136;-47
2022/01/23 14:12:52;;;;;;;;;74.25;62.25;;;;;;;;5021390;28;51132;-50
2022/01/23 14:15:42;;;;;;;;;73.00;57.25;;;;;;;;5017110;28;51164;-48
2022/01/23 14:18:28;;;;;;;;;72.50;54.50;;;;;;;;5030569;28;51405;-45
2022/01/23 14:21:12;;;;;;;;;72.75;57.00;;;;;;;;5020790;28;52336;-47
2022/01/23 14:23:57;;;;;;;;;72.25;55.25;;;;;;;;5021407;28;51696;-48
2022/01/23 14:27:08;;;;;;;;;71.00;53.50;;;;;;;;5013606;28;51062;-48
2022/01/23 14:29:53;;;;;;;;;70.25;54.25;;;;;;;;5010659;28;51195;-45
2022/01/23 14:32:46;;;;;;;;;75.25;61.25;;;;;;;;5021898;28;51075;-51
2022/01/23 14:35:34;;;;;;;;;75.25;61.50;;;;;;;;5021418;28;51570;-47
2022/01/23 14:38:23;;;;;;;;;69.00;54.50;;;;;;;;5021700;28;51476;-48
2022/01/23 14:41:10;;;;;;;;;77.25;63.00;;;;;;;;5021862;28;51022;-47
2022/01/23 14:44:05;;;;;;;;;72.25;56.50;;;;;;;;5021064;28;51030;-45
2022/01/23 14:46:53;;;;;;;;;77.50;60.50;;;;;;;;5019617;28;51037;-51
2022/01/23 14:49:41;;;;;;;;;65.75;54.25;;;;;;;;5021464;28;51531;-46
2022/01/23 14:52:28;;;;;;;;;67.75;54.00;;;;;;;;5021762;28;51437;-48
2022/01/23 14:55:13;;;;;;;;;70.75;57.00;;;;;;;;5021679;28;51267;-45
2022/01/23 14:58:03;;;;;;;;;70.00;52.75;;;;;;;;5023549;28;51128;-45
2022/01/23 15:00:52;;;;;;;;;66.75;52.25;;;;;;;;5021835;28;51651;-47
2022/01/23 15:04:04;;;;;;;;;74.25;58.00;;;;;;;;5021313;28;51118;-44
2022/01/23 15:06:50;;;;;;;;;70.25;53.50;;;;;;;;5021276;28;51304;-47
2022/01/23 15:09:34;;;;;;;;;70.00;55.75;;;;;;;;5020661;28;51181;-48
2022/01/23 15:12:23;;;;;;;;;73.00;57.75;;;;;;;;5020659;28;51411;-52
2022/01/23 15:15:07;;;;;;;;;72.75;57.75;;;;;;;;5015325;28;51681;-49
2022/01/23 15:17:53;;;;;;;;;66.50;50.50;;;;;;;;5020536;28;51187;-46
2022/01/23 15:20:40;;;;;;;;;72.75;55.75;;;;;;;;5020661;28;51524;-49
2022/01/23 15:23:25;;;;;;;;;73.75;57.25;;;;;;;;5005805;28;51107;-50
2022/01/23 15:26:11;;;;;;;;;74.75;59.75;;;;;;;;5024391;28;51558;-50
2022/01/23 15:29:12;;;;;;;;;45.25;26.75;;;;;;;;5018965;28;51483;-49
2022/01/23 15:32:09;;;;;;;;;62.75;49.50;;;;;;;;5020658;28;51077;-44
2022/01/23 15:35:13;;;;;;;;;72.50;61.25;;;;;;;;5020929;28;51088;-47
2022/01/23 15:37:58;;;;;;;;;72.75;57.50;;;;;;;;5020241;28;51165;-47
2022/01/23 15:40:44;;;;;;;;;76.00;56.00;;;;;;;;5021761;28;51121;-45
2022/01/23 15:43:33;;;;;;;;;72.00;59.75;;;;;;;;5020433;28;51414;-48
2022/01/23 15:46:41;;;;;;;;;75.50;61.25;;;;;;;;5020012;28;51079;-49
2022/01/23 15:49:29;;;;;;;;;75.50;62.25;;;;;;;;5017441;28;51096;-50
2022/01/23 15:52:17;;;;;;;;;75.00;62.50;;;;;;;;5020243;28;51133;-49
2022/01/23 15:55:06;;;;;;;;;73.00;59.75;;;;;;;;5019506;28;51176;-47
2022/01/23 15:57:51;;;;;;;;;68.25;55.50;;;;;;;;5020270;28;51149;-47
2022/01/23 16:00:40;;;;;;;;;71.75;57.50;;;;;;;;5020004;28;51212;-47
2022/01/23 16:03:26;;;;;;;;;419.60;359.80;;;;;;;;5016485;28;51345;-46
2022/01/23 16:06:11;;;;;;;;;267.25;237.00;;;;;;;;4937526;28;51242;-47
2022/01/23 16:08:55;;;;;;;;;77.75;67.25;;;;;;;;5016262;28;55724;-47
2022/01/23 16:12:01;;;;;;;;;73.50;59.75;;;;;;;;5013214;28;51195;-48
2022/01/23 16:15:07;;;;;;;;;76.25;65.25;;;;;;;;5012640;28;51342;-50
2022/01/23 16:17:51;;;;;;;;;72.50;60.50;;;;;;;;5008444;28;51445;-44
2022/01/23 16:20:37;;;;;;;;;75.50;65.25;;;;;;;;5020507;28;51533;-50
2022/01/23 16:23:22;;;;;;;;;73.50;61.25;;;;;;;;5016999;28;51241;-44
2022/01/23 16:26:12;;;;;;;;;76.75;56.25;;;;;;;;5016691;28;51582;-48
2022/01/23 16:28:57;;;;;;;;;72.00;56.50;;;;;;;;5003742;28;51066;-44
2022/01/23 16:31:41;;;;;;;;;73.75;59.00;;;;;;;;5023039;28;51116;-48
2022/01/23 16:34:30;;;;;;;;;70.50;54.50;;;;;;;;5020709;28;51174;-45
2022/01/23 16:37:15;;;;;;;;;73.75;58.50;;;;;;;;5020056;28;51322;-49
2022/01/23 16:40:01;;;;;;;;;72.00;57.00;;;;;;;;5019372;28;51181;-50
2022/01/23 16:42:54;;;;;;;;;75.75;59.75;;;;;;;;5021381;28;51135;-45
2022/01/23 16:45:40;;;;;;;;;74.75;57.25;;;;;;;;5015465;28;51143;-44
2022/01/23 16:48:32;;;;;;;;;70.75;54.50;;;;;;;;5015101;28;51147;-47
2022/01/23 16:51:16;;;;;;;;;73.75;61.25;;;;;;;;5004508;28;51559;-48
2022/01/23 16:54:08;;;;;;;;;73.25;57.75;;;;;;;;5019351;28;51497;-44
2022/01/23 16:57:03;;;;;;;;;71.75;54.25;;;;;;;;5018285;28;51121;-49
2022/01/23 16:59:48;;;;;;;;;75.25;60.00;;;;;;;;5019270;28;51157;-44
2022/01/23 17:02:33;;;;;;;;;77.00;60.25;;;;;;;;5018432;28;51480;-47
2022/01/23 17:05:42;;;;;;;;;73.75;57.75;;;;;;;;5017675;28;51161;-48
2022/01/23 17:08:27;;;;;;;;;53.50;38.75;;;;;;;;5015489;28;51572;-51
2022/01/23 17:11:23;;;;;;;;;77.25;65.75;;;;;;;;5017909;28;51077;-47
2022/01/23 17:14:09;;;;;;;;;75.75;61.00;;;;;;;;5019186;28;51121;-44
2022/01/23 17:16:59;;;;;;;;;77.00;62.50;;;;;;;;5017683;28;51019;-45
2022/01/23 17:19:43;;;;;;;;;75.75;63.25;;;;;;;;5014837;28;51097;-47
2022/01/23 17:22:31;;;;;;;;;73.25;61.25;;;;;;;;4978749;28;50983;-51
2022/01/23 17:25:15;;;;;;;;;75.25;56.25;;;;;;;;5016336;28;51046;-45
2022/01/23 17:28:02;;;;;;;;;73.75;56.75;;;;;;;;5016414;28;51110;-47
2022/01/23 17:30:50;;;;;;;;;74.50;58.75;;;;;;;;5015912;28;51242;-45
2022/01/23 17:33:37;;;;;;;;;72.25;59.75;;;;;;;;5016157;28;51900;-50
2022/01/23 17:36:43;;;;;;;;;79.00;68.25;;;;;;;;5017641;28;51130;-51
2022/01/23 17:39:35;;;;;;;;;73.50;60.25;;;;;;;;5011920;28;51493;-53
2022/01/23 17:42:28;;;;;;;;;75.25;60.75;;;;;;;;5017083;28;51537;-52
2022/01/23 17:45:22;;;;;;;;;77.00;63.75;;;;;;;;5016180;28;51181;-52
2022/01/23 17:51:15;;;;;;;;;75.25;55.50;;;;;;;;4998431;28;52591;-50
2022/01/23 17:54:00;;;;;;;;;78.50;66.50;;;;;;;;5014625;28;51446;-50
2022/01/23 17:56:51;;;;;;;;;80.50;67.50;;;;;;;;5015798;28;51425;-47
2022/01/23 17:59:36;;;;;;;;;72.25;60.75;;;;;;;;5000420;28;51818;-51
2022/01/23 18:02:28;;;;;;;;;76.00;59.25;;;;;;;;5017714;28;51211;-51
2022/01/23 18:05:17;;;;;;;;;77.00;65.75;;;;;;;;5017360;28;51031;-48
2022/01/23 18:08:02;;;;;;;;;87.25;70.75;;;;;;;;5016778;28;51588;-46
2022/01/23 18:10:47;;;;;;;;;82.25;71.75;;;;;;;;5017527;28;51181;-46
2022/01/23 18:13:32;;;;;;;;;81.25;66.00;;;;;;;;5016568;28;51123;-49
2022/01/23 18:16:17;;;;;;;;;82.25;67.25;;;;;;;;5012192;28;51564;-45
2022/01/23 18:19:03;;;;;;;;;80.25;65.00;;;;;;;;5016088;28;50988;-47
2022/01/23 18:21:49;;;;;;;;;80.75;66.25;;;;;;;;5013763;28;51473;-46
2022/01/23 18:24:43;;;;;;;;;78.50;65.00;;;;;;;;5013430;28;51121;-47
2022/01/23 18:27:28;;;;;;;;;79.00;64.25;;;;;;;;5016815;28;51250;-44
2022/01/23 18:30:16;;;;;;;;;85.00;66.50;;;;;;;;5018107;28;51111;-45
2022/01/23 18:33:21;;;;;;;;;80.50;69.50;;;;;;;;5021457;28;51376;-50
2022/01/23 18:36:06;;;;;;;;;82.00;68.75;;;;;;;;5006122;28;51118;-53
2022/01/23 18:38:54;;;;;;;;;79.50;67.75;;;;;;;;5021008;28;51093;-44
2022/01/23 18:41:43;;;;;;;;;78.75;66.75;;;;;;;;5021259;28;51085;-46
2022/01/23 18:44:29;;;;;;;;;77.75;65.50;;;;;;;;5017739;28;51364;-44
2022/01/23 18:47:14;;;;;;;;;80.25;68.00;;;;;;;;5021146;28;51061;-53
2022/01/23 18:50:00;;;;;;;;;78.75;65.50;;;;;;;;5018710;28;51615;-45
2022/01/23 18:53:07;;;;;;;;;81.75;65.25;;;;;;;;5018471;28;51572;-49
2022/01/23 18:55:53;;;;;;;;;84.25;67.00;;;;;;;;5019830;28;51145;-44
2022/01/23 18:58:42;;;;;;;;;86.50;73.25;;;;;;;;5018573;28;51509;-46
2022/01/23 19:01:40;;;;;;;;;82.50;73.25;;;;;;;;5019012;28;51455;-48
2022/01/23 19:04:38;;;;;;;;;83.00;72.00;;;;;;;;5019028;28;51160;-49
2022/01/23 19:07:33;;;;;;;;;77.75;64.50;;;;;;;;5020583;28;51026;-46
2022/01/23 19:10:31;;;;;;;;;84.25;73.25;;;;;;;;5019553;28;51046;-48
2022/01/23 19:13:18;;;;;;;;;82.25;64.50;;;;;;;;5019177;28;51259;-50
2022/01/23 19:16:05;;;;;;;;;79.75;67.50;;;;;;;;5026671;28;51457;-51
2022/01/23 19:19:24;;;;;;;;;88.25;70.50;;;;;;;;5017295;28;51679;-50
2022/01/23 19:22:10;;;;;;;;;82.25;71.25;;;;;;;;5019438;28;51335;-48
2022/01/23 19:24:57;;;;;;;;;82.00;67.75;;;;;;;;5019380;28;51073;-50
2022/01/23 19:27:47;;;;;;;;;79.00;65.00;;;;;;;;5019235;28;51131;-48
2022/01/23 19:31:05;;;;;;;;;77.25;61.25;;;;;;;;5019695;28;51181;-48
2022/01/23 19:34:15;;;;;;;;;80.25;61.75;;;;;;;;5018721;28;51152;-51
2022/01/23 19:37:00;;;;;;;;;77.75;64.50;;;;;;;;5019128;28;51165;-53